Terminal Aerodrome Forecast
Issued by NWS Glasgow, MT

Home | Current Version | Previous Version | Text Only | Print | Product List | Glossary On
Versions: 1 2 3 4 5 6 7 8 9 10 11 12 13 14 15
000
FTUS45 KGGW 041700
TAFGGW
TAF
KGGW 041730Z 0418/0518 29008KT 6SM HZ SCT120
     FM042100 36015KT 6SM HZ VCTS SCT100CB
     FM050100 04015KT P6SM -TSRA BKN070CB
     FM050900 36014KT P6SM -SHRA BKN045=

USA.gov is the U.S. government's official web portal to all federal, state and local government web resources and services.